Salinas, Brazil
Current Conditions -  °F | °C
As of 1:00 AM on Friday 31 Oct 2014 (Local Time) from SBMK Reporting Station
Broken Clouds Broken Clouds  
Wind Chill: 68°   Ceiling: 10000
Heat Index: 68°   Visibility: 6mi
Dew Point: 63°   Wind: 3mph
Humidity: 83%   Direction: 40°NE
Pressure: 30.03"   Gusts: NA
Location:  16.17°S, 42.29°W
Report Text: SBMK 310300Z 04003KT 010V090 9999 FEW025 BKN100 20/17 Q1017
Loading
Personal Weather Stations






























Interactive Weather Map
Tropical Storm Tracking
New forecast layout! Learn more

10-Day Weather Forecast

Advertisements
Track Severe Weather on mobile